createdAt,value
2023-02-18T00:01:37.924Z,100718.00
2023-02-18T00:04:04.928Z,100719.84
2023-02-18T00:06:34.868Z,100716.53
2023-02-18T00:09:04.100Z,100715.50
2023-02-18T00:11:35.085Z,100715.50
2023-02-18T00:14:04.385Z,100706.66
2023-02-18T00:16:31.974Z,100708.50
2023-02-18T00:19:06.328Z,100707.66
2023-02-18T00:21:35.342Z,100699.84
2023-02-18T00:24:03.877Z,100705.19
2023-02-18T00:26:30.991Z,100713.22
2023-02-18T00:28:57.964Z,100708.88
2023-02-18T00:31:34.549Z,100714.22
2023-02-18T00:34:03.950Z,100708.88
2023-02-18T00:36:31.273Z,100708.88
2023-02-18T00:39:03.867Z,100712.38
2023-02-18T00:41:32.334Z,100705.34
2023-02-18T00:43:59.470Z,100691.97
2023-02-18T00:46:27.609Z,100691.97
2023-02-18T00:48:55.280Z,100688.47
2023-02-18T00:51:23.546Z,100691.13
2023-02-18T00:53:50.689Z,100691.13
2023-02-18T00:56:17.938Z,100685.78
2023-02-18T00:58:44.921Z,100699.34
2023-02-18T01:01:12.655Z,100689.47
2023-02-18T01:03:42.840Z,100694.81
2023-02-18T01:06:11.680Z,100705.53
2023-02-18T01:08:40.636Z,100700.16
2023-02-18T01:11:10.228Z,100689.47
2023-02-18T01:13:38.012Z,100695.66
2023-02-18T01:16:07.776Z,100689.47
2023-02-18T01:18:35.932Z,100684.13
2023-02-18T01:21:08.437Z,100687.00
2023-02-18T01:23:38.685Z,100684.31
2023-02-18T01:26:06.627Z,100679.97
2023-02-18T01:28:34.208Z,100691.50
2023-02-18T01:31:07.639Z,100686.34
2023-02-18T01:33:35.547Z,100689.84
2023-02-18T01:36:03.420Z,100683.66
2023-02-18T01:38:30.620Z,100684.50
2023-02-18T01:40:57.596Z,100685.50
2023-02-18T01:43:24.719Z,100690.88
2023-02-18T01:45:58.165Z,100677.50
2023-02-18T01:48:49.437Z,100673.97
2023-02-18T01:51:35.744Z,100670.44
2023-02-18T01:54:16.187Z,100667.78
2023-02-18T01:56:58.955Z,100667.78
2023-02-18T01:59:52.013Z,100671.47
2023-02-18T02:02:25.078Z,100665.09
2023-02-18T02:04:54.353Z,100659.75
2023-02-18T02:07:24.253Z,100663.44
2023-02-18T02:09:58.372Z,100674.13
2023-02-18T02:12:31.514Z,100674.13
2023-02-18T02:15:31.556Z,100655.59
2023-02-18T02:18:35.223Z,100655.59
2023-02-18T02:21:29.217Z,100660.94
2023-02-18T02:24:55.418Z,100647.75
2023-02-18T02:27:32.309Z,100647.75
2023-02-18T02:30:36.618Z,100645.91
2023-02-18T02:33:50.350Z,100641.59
2023-02-18T02:36:38.967Z,100652.28
2023-02-18T02:39:15.121Z,100648.78
2023-02-18T02:42:28.021Z,100641.59
2023-02-18T02:45:09.792Z,100625.53
2023-02-18T02:47:49.892Z,100630.06
2023-02-18T02:50:54.869Z,100623.06
2023-02-18T02:53:27.352Z,100624.72
2023-02-18T02:55:56.075Z,100619.38
2023-02-18T02:58:24.240Z,100616.00
2023-02-18T03:01:21.677Z,100612.69
2023-02-18T03:04:23.000Z,100625.06
2023-02-18T03:07:12.167Z,100616.38
2023-02-18T03:10:08.114Z,100615.56
2023-02-18T03:12:53.640Z,100610.41
2023-02-18T03:15:34.202Z,100624.59
2023-02-18T03:18:08.886Z,100621.72
2023-02-18T03:20:57.473Z,100606.72
2023-02-18T03:23:34.812Z,100614.72
2023-02-18T03:26:06.271Z,100618.41
2023-02-18T03:28:35.094Z,100610.41
2023-02-18T03:31:13.323Z,100606.06
2023-02-18T03:33:52.169Z,100606.06
2023-02-18T03:36:21.087Z,100605.22
2023-02-18T03:39:15.988Z,100597.38
2023-02-18T03:41:43.936Z,100597.38
2023-02-18T03:44:12.728Z,100596.53
2023-02-18T03:46:45.381Z,100598.38
2023-02-18T03:49:14.222Z,100601.06
2023-02-18T03:51:41.987Z,100594.06
2023-02-18T03:54:10.153Z,100603.09
2023-02-18T03:56:37.790Z,100597.75
2023-02-18T03:59:04.843Z,100599.41
2023-02-18T04:01:31.866Z,100598.56
2023-02-18T04:03:59.060Z,100610.09
2023-02-18T04:06:26.054Z,100603.91
2023-02-18T04:08:53.036Z,100604.75
2023-02-18T04:11:20.009Z,100608.25
2023-02-18T04:13:47.336Z,100603.72
2023-02-18T04:16:14.782Z,100611.94
2023-02-18T04:18:41.796Z,100604.75
2023-02-18T04:21:09.595Z,100609.28
2023-02-18T04:23:36.505Z,100610.94
2023-02-18T04:26:03.583Z,100613.78
2023-02-18T04:28:30.487Z,100613.78
2023-02-18T04:30:57.427Z,100622.44
2023-02-18T04:33:24.344Z,100611.13
2023-02-18T04:35:51.296Z,100616.47
2023-02-18T04:38:18.244Z,100611.13
2023-02-18T04:40:45.164Z,100615.44
2023-02-18T04:43:12.275Z,100611.13
2023-02-18T04:45:39.201Z,100604.75
2023-02-18T04:48:06.243Z,100607.44
2023-02-18T04:50:33.163Z,100602.25
2023-02-18T04:53:00.098Z,100594.25
2023-02-18T04:55:28.084Z,100601.44
2023-02-18T04:57:55.000Z,100596.09
2023-02-18T05:00:22.097Z,100594.41
2023-02-18T05:02:49.041Z,100603.28
2023-02-18T05:05:16.445Z,100606.09
2023-02-18T05:07:43.452Z,100609.78
2023-02-18T05:10:15.611Z,100602.78
2023-02-18T05:12:42.638Z,100600.31
2023-02-18T05:15:10.322Z,100600.50
2023-02-18T05:17:37.254Z,100588.94
2023-02-18T05:20:08.915Z,100588.09
2023-02-18T05:22:37.226Z,100584.78
2023-02-18T05:25:05.204Z,100586.81
2023-02-18T05:27:32.328Z,100590.50
2023-02-18T05:29:59.316Z,100580.81
2023-02-18T05:32:26.355Z,100586.16
2023-02-18T05:34:53.285Z,100581.00
2023-02-18T05:37:20.170Z,100585.50
2023-02-18T05:39:47.112Z,100583.00
2023-02-18T05:42:14.227Z,100585.88
2023-02-18T05:44:41.191Z,100576.84
2023-02-18T05:47:11.767Z,100572.66
2023-02-18T05:49:41.471Z,100566.50
2023-02-18T05:52:10.469Z,100579.03
2023-02-18T05:54:37.993Z,100580.88
2023-02-18T05:57:05.040Z,100578.19
2023-02-18T05:59:32.115Z,100583.53
2023-02-18T06:01:59.132Z,100580.03
2023-02-18T06:04:26.053Z,100574.88
2023-02-18T06:06:52.999Z,100578.56
2023-02-18T06:09:19.908Z,100579.59
2023-02-18T06:11:46.820Z,100575.06
2023-02-18T06:14:13.757Z,100573.41
2023-02-18T06:16:40.767Z,100575.22
2023-02-18T06:19:08.003Z,100565.53
2023-02-18T06:21:35.306Z,100562.22
2023-02-18T06:24:02.504Z,100568.41
2023-02-18T06:26:29.447Z,100567.75
2023-02-18T06:28:56.398Z,100561.59
2023-02-18T06:31:23.418Z,100567.94
2023-02-18T06:33:50.519Z,100560.91
2023-02-18T06:36:17.471Z,100558.44
2023-02-18T06:38:45.735Z,100547.91
2023-02-18T06:41:14.137Z,100553.28
2023-02-18T06:43:42.050Z,100552.63
2023-02-18T06:46:09.736Z,100550.78
2023-02-18T06:48:38.079Z,100548.28
2023-02-18T06:51:05.478Z,100544.75
2023-02-18T06:53:32.478Z,100544.59
2023-02-18T06:55:59.422Z,100547.28
2023-02-18T06:58:26.390Z,100542.75
2023-02-18T07:00:53.354Z,100537.59
2023-02-18T07:03:20.458Z,100536.59
2023-02-18T07:05:47.571Z,100537.41
2023-02-18T07:08:14.891Z,100531.06
2023-02-18T07:10:41.883Z,100536.22
2023-02-18T07:13:08.854Z,100537.88
2023-02-18T07:15:35.805Z,100537.06
2023-02-18T07:18:02.795Z,100534.19
2023-02-18T07:20:30.146Z,100533.22
2023-02-18T07:22:57.129Z,100535.69
2023-02-18T07:25:24.543Z,100528.50
2023-02-18T07:27:51.844Z,100538.00
2023-02-18T07:30:20.572Z,100522.63
2023-02-18T07:32:47.755Z,100528.81
2023-02-18T07:35:17.256Z,100534.78
2023-02-18T07:37:48.839Z,100522.06
2023-02-18T07:40:20.307Z,100521.88
2023-02-18T07:42:47.776Z,100514.34
2023-02-18T07:45:14.894Z,100517.66
2023-02-18T07:47:42.510Z,100518.34
2023-02-18T07:50:10.416Z,100506.44
2023-02-18T07:52:37.585Z,100503.22
2023-02-18T07:55:04.908Z,100490.50
2023-02-18T07:57:32.035Z,100500.81
2023-02-18T07:59:58.954Z,100510.16
2023-02-18T08:02:26.002Z,100505.44
2023-02-18T08:04:53.002Z,100504.06
2023-02-18T08:07:21.888Z,100498.34
2023-02-18T08:09:50.491Z,100510.34
2023-02-18T08:12:17.871Z,100507.28
2023-02-18T08:14:45.284Z,100516.63
2023-02-18T08:17:12.216Z,100509.06
2023-02-18T08:19:39.206Z,100503.16
2023-02-18T08:22:06.154Z,100508.16
2023-02-18T08:24:33.246Z,100507.78
2023-02-18T08:27:01.555Z,100503.09
2023-02-18T08:29:29.640Z,100504.34
2023-02-18T08:31:58.095Z,100505.00
2023-02-18T08:34:26.332Z,100503.00
2023-02-18T08:36:53.281Z,100502.63
2023-02-18T08:39:20.205Z,100499.75
2023-02-18T08:41:47.225Z,100501.44
2023-02-18T08:44:14.331Z,100494.25
2023-02-18T08:46:41.367Z,100498.38
2023-02-18T08:49:08.656Z,100495.53
2023-02-18T08:51:36.019Z,100492.50
2023-02-18T08:54:03.029Z,100485.28
2023-02-18T08:56:30.079Z,100487.56
2023-02-18T08:58:57.018Z,100478.53
2023-02-18T09:01:24.122Z,100473.63
2023-02-18T09:03:51.162Z,100482.31
2023-02-18T09:06:18.152Z,100478.25
2023-02-18T09:08:45.142Z,100466.31
2023-02-18T09:11:12.857Z,100462.25
2023-02-18T09:13:40.216Z,100464.75
2023-02-18T09:16:11.947Z,100472.84
2023-02-18T09:18:39.170Z,100480.53
2023-02-18T09:21:09.755Z,100478.28
2023-02-18T09:23:37.136Z,100474.59
2023-02-18T09:26:12.781Z,100477.72
2023-02-18T09:28:40.350Z,100471.78
2023-02-18T09:31:11.103Z,100479.44
2023-02-18T09:33:44.251Z,100469.84
2023-02-18T09:36:12.786Z,100487.16
2023-02-18T09:38:39.782Z,100494.84
2023-02-18T09:41:28.417Z,100485.59
2023-02-18T09:44:01.279Z,100487.22
2023-02-18T09:46:46.547Z,100484.19
2023-02-18T09:49:25.556Z,100483.38
2023-02-18T09:51:55.602Z,100482.97
2023-02-18T09:54:27.071Z,100474.72
2023-02-18T09:56:54.445Z,100474.72
2023-02-18T09:59:24.783Z,100485.09
2023-02-18T10:01:54.411Z,100481.38
2023-02-18T10:04:40.740Z,100472.94
2023-02-18T10:07:28.507Z,100475.25
2023-02-18T10:09:59.215Z,100485.56
2023-02-18T10:12:27.438Z,100479.84
2023-02-18T10:14:59.166Z,100479.28
2023-02-18T10:17:31.190Z,100481.75
2023-02-18T10:20:01.013Z,100481.56
2023-02-18T10:22:29.864Z,100487.38
2023-02-18T10:25:03.657Z,100475.63
2023-02-18T10:27:37.403Z,100463.88
2023-02-18T10:30:22.833Z,100476.25
2023-02-18T10:32:56.296Z,100469.88
2023-02-18T10:35:38.420Z,100471.53
2023-02-18T10:38:26.768Z,100484.56
2023-02-18T10:41:30.370Z,100475.28
2023-02-18T10:44:18.047Z,100487.50
2023-02-18T10:47:04.678Z,100462.34
2023-02-18T10:49:41.747Z,100471.44
2023-02-18T10:52:16.962Z,100468.56
2023-02-18T10:55:10.811Z,100467.34
2023-02-18T10:57:53.499Z,100478.53
2023-02-18T11:00:27.236Z,100464.91
2023-02-18T11:03:17.605Z,100471.56
2023-02-18T11:05:47.861Z,100482.13
2023-02-18T11:08:21.709Z,100476.75
2023-02-18T11:10:50.348Z,100471.38
2023-02-18T11:13:32.706Z,100467.06
2023-02-18T11:16:09.212Z,100466.19
2023-02-18T11:18:43.717Z,100465.56
2023-02-18T11:21:34.436Z,100473.81
2023-02-18T11:24:15.244Z,100458.94
2023-02-18T11:26:44.129Z,100472.34
2023-02-18T11:29:25.913Z,100466.97
2023-02-18T11:31:56.906Z,100467.34
2023-02-18T11:34:29.743Z,100454.97
2023-02-18T11:37:10.408Z,100453.50
2023-02-18T11:39:43.057Z,100457.03
2023-02-18T11:42:15.988Z,100454.34
2023-02-18T11:44:56.775Z,100459.50
2023-02-18T11:47:33.786Z,100460.31
2023-02-18T11:50:09.514Z,100464.88
2023-02-18T11:52:40.214Z,100460.31
2023-02-18T11:55:24.822Z,100450.44
2023-02-18T11:57:56.508Z,100445.88
2023-02-18T12:00:33.104Z,100452.09
2023-02-18T12:03:04.640Z,100452.28
2023-02-18T12:05:33.224Z,100448.78
2023-02-18T12:08:25.479Z,100437.84
2023-02-18T12:11:01.816Z,100443.00
2023-02-18T12:13:38.169Z,100432.28
2023-02-18T12:16:46.977Z,100440.53
2023-02-18T12:19:37.035Z,100441.34
2023-02-18T12:22:32.286Z,100452.50
2023-02-18T12:25:31.022Z,100438.63
2023-02-18T12:28:22.058Z,100435.13
2023-02-18T12:31:22.889Z,100431.41
2023-02-18T12:34:11.396Z,100423.16
2023-02-18T12:36:48.399Z,100427.31
2023-02-18T12:39:54.863Z,100429.81
2023-02-18T12:42:49.583Z,100428.56
2023-02-18T12:45:53.095Z,100426.53
2023-02-18T12:48:33.168Z,100419.53
2023-02-18T12:51:19.943Z,100423.22
2023-02-18T12:54:23.511Z,100433.94
2023-02-18T12:57:33.659Z,100422.22
2023-02-18T13:00:28.003Z,100414.16
2023-02-18T13:03:20.033Z,100414.16
2023-02-18T13:06:38.573Z,100419.53
2023-02-18T13:09:23.812Z,100419.16
2023-02-18T13:12:23.680Z,100401.00
2023-02-18T13:15:03.247Z,100423.09
2023-02-18T13:17:37.923Z,100385.34
2023-02-18T13:20:39.878Z,100394.66
2023-02-18T13:23:16.133Z,100382.50
2023-02-18T13:25:47.154Z,100386.66
2023-02-18T13:28:31.928Z,100390.59
2023-02-18T13:31:58.105Z,100389.78
2023-02-18T13:34:48.467Z,100384.03
2023-02-18T13:37:39.732Z,100389.00
2023-02-18T13:40:19.422Z,100386.31
2023-02-18T13:42:46.340Z,100388.59
2023-02-18T13:45:29.578Z,100384.25
2023-02-18T13:47:57.741Z,100364.44
2023-02-18T13:50:25.661Z,100353.31
2023-02-18T13:53:08.113Z,100358.06
2023-02-18T13:55:49.017Z,100357.66
2023-02-18T13:58:23.622Z,100357.03
2023-02-18T14:01:02.077Z,100355.78
2023-02-18T14:03:42.397Z,100339.69
2023-02-18T14:06:38.940Z,100368.81
2023-02-18T14:09:25.856Z,100359.75
2023-02-18T14:12:30.517Z,100350.88
2023-02-18T14:14:58.820Z,100358.09
2023-02-18T14:17:40.812Z,100349.38
2023-02-18T14:20:07.603Z,100344.22
2023-02-18T14:22:49.189Z,100354.97
2023-02-18T14:25:27.020Z,100358.69
2023-02-18T14:27:54.532Z,100344.44
2023-02-18T14:30:40.629Z,100344.44
2023-02-18T14:33:16.232Z,100356.59
2023-02-18T14:36:05.362Z,100350.81
2023-02-18T14:39:16.625Z,100335.09
2023-02-18T14:42:25.525Z,100342.09
2023-02-18T14:45:09.550Z,100350.34
2023-02-18T14:48:30.358Z,100344.34
2023-02-18T14:51:00.126Z,100355.69
2023-02-18T14:53:28.484Z,100345.97
2023-02-18T14:56:02.375Z,100365.53
2023-02-18T14:58:38.528Z,100366.78
2023-02-18T15:01:23.040Z,100361.78
2023-02-18T15:03:54.013Z,100356.16
2023-02-18T15:06:35.139Z,100371.63
2023-02-18T15:09:19.522Z,100371.00
2023-02-18T15:12:01.547Z,100361.91
2023-02-18T15:14:38.780Z,100374.22
2023-02-18T15:17:24.018Z,100347.16
2023-02-18T15:19:58.381Z,100364.06
2023-02-18T15:22:31.190Z,100370.44
2023-02-18T15:24:58.781Z,100370.63
2023-02-18T15:27:32.980Z,100367.31
2023-02-18T15:30:19.468Z,100374.91
2023-02-18T15:32:54.959Z,100372.63
2023-02-18T15:35:29.283Z,100375.06
2023-02-18T15:38:00.138Z,100371.75
2023-02-18T15:40:35.200Z,100375.84
2023-02-18T15:43:06.307Z,100377.91
2023-02-18T15:45:43.426Z,100386.13
2023-02-18T15:48:48.765Z,100369.59
2023-02-18T15:51:22.622Z,100367.31
2023-02-18T15:53:54.343Z,100371.19
2023-02-18T15:56:32.430Z,100380.47
2023-02-18T15:59:25.493Z,100370.97
2023-02-18T16:02:08.980Z,100375.69
2023-02-18T16:04:42.007Z,100375.25
2023-02-18T16:07:37.404Z,100373.97
2023-02-18T16:10:44.563Z,100381.56
2023-02-18T16:13:16.852Z,100383.78
2023-02-18T16:15:47.700Z,100387.88
2023-02-18T16:18:41.688Z,100374.88
2023-02-18T16:21:17.674Z,100381.63
2023-02-18T16:24:00.557Z,100403.44
2023-02-18T16:26:30.688Z,100409.16
2023-02-18T16:29:16.838Z,100406.66
2023-02-18T16:31:43.848Z,100392.19
2023-02-18T16:34:11.205Z,100394.25
2023-02-18T16:36:58.111Z,100398.97
2023-02-18T16:39:25.244Z,100405.69
2023-02-18T16:41:52.158Z,100397.22
2023-02-18T16:44:19.087Z,100409.13
2023-02-18T16:46:46.214Z,100412.41
2023-02-18T16:49:14.190Z,100407.59
2023-02-18T16:51:42.628Z,100420.50
2023-02-18T16:54:14.008Z,100415.34
2023-02-18T16:56:41.032Z,100397.97
2023-02-18T16:59:08.122Z,100408.03
2023-02-18T17:01:44.971Z,100419.13
2023-02-18T17:04:15.354Z,100420.16
2023-02-18T17:06:44.923Z,100425.03
2023-02-18T17:09:23.512Z,100420.06
2023-02-18T17:11:53.481Z,100434.44
2023-02-18T17:14:22.420Z,100441.00
2023-02-18T17:16:52.801Z,100436.66
2023-02-18T17:19:20.381Z,100442.38
2023-02-18T17:21:49.006Z,100441.72
2023-02-18T17:24:18.400Z,100439.25
2023-02-18T17:26:45.443Z,100451.97
2023-02-18T17:29:12.650Z,100435.06
2023-02-18T17:31:47.081Z,100448.63
2023-02-18T17:34:22.362Z,100449.84
2023-02-18T17:36:49.280Z,100449.22
2023-02-18T17:39:18.164Z,100444.84
2023-02-18T17:41:45.281Z,100445.06
2023-02-18T17:44:21.148Z,100449.75
2023-02-18T17:46:52.235Z,100448.94
2023-02-18T17:49:19.208Z,100451.78
2023-02-18T17:51:46.169Z,100455.47
2023-02-18T17:54:18.586Z,100444.13
2023-02-18T17:56:46.141Z,100449.66
2023-02-18T17:59:13.281Z,100457.88
2023-02-18T18:01:40.351Z,100439.31
2023-02-18T18:04:19.289Z,100436.84
2023-02-18T18:06:47.037Z,100435.19
2023-02-18T18:09:14.046Z,100425.69
2023-02-18T18:11:41.306Z,100429.38
2023-02-18T18:14:13.203Z,100442.91
2023-02-18T18:16:40.370Z,100428.91
2023-02-18T18:19:07.412Z,100437.13
2023-02-18T18:21:36.109Z,100433.78
2023-02-18T18:24:04.061Z,100428.81
2023-02-18T18:26:31.371Z,100424.47
2023-02-18T18:28:58.455Z,100422.16
2023-02-18T18:31:25.682Z,100431.19
2023-02-18T18:33:53.437Z,100429.53
2023-02-18T18:36:23.880Z,100438.56
2023-02-18T18:38:51.050Z,100429.91
2023-02-18T18:41:21.481Z,100444.25
2023-02-18T18:43:49.553Z,100440.94
2023-02-18T18:46:16.818Z,100447.31
2023-02-18T18:48:43.769Z,100453.69
2023-02-18T18:51:18.550Z,100463.72
2023-02-18T18:53:45.656Z,100459.38
2023-02-18T18:56:13.629Z,100457.72
2023-02-18T18:58:40.699Z,100454.41
2023-02-18T19:01:19.427Z,100464.44
2023-02-18T19:03:47.411Z,100457.44
2023-02-18T19:06:16.603Z,100453.09
2023-02-18T19:08:45.449Z,100458.44
2023-02-18T19:11:12.838Z,100459.44
2023-02-18T19:13:40.654Z,100465.81
2023-02-18T19:16:24.434Z,100462.50
2023-02-18T19:18:51.660Z,100468.66
2023-02-18T19:21:18.768Z,100466.34
2023-02-18T19:23:46.109Z,100477.22
2023-02-18T19:26:16.913Z,100475.56
2023-02-18T19:28:45.653Z,100478.41
2023-02-18T19:31:13.134Z,100485.75
2023-02-18T19:33:40.406Z,100479.75
2023-02-18T19:36:11.687Z,100473.78
2023-02-18T19:38:39.211Z,100474.59
2023-02-18T19:41:19.112Z,100476.63
2023-02-18T19:43:48.624Z,100478.63
2023-02-18T19:46:18.636Z,100474.31
2023-02-18T19:48:52.218Z,100473.66
2023-02-18T19:51:21.166Z,100464.00
2023-02-18T19:53:48.127Z,100465.00
2023-02-18T19:56:15.309Z,100467.69
2023-02-18T19:58:42.268Z,100465.16
2023-02-18T20:01:13.902Z,100460.00
2023-02-18T20:03:41.563Z,100456.50
2023-02-18T20:06:19.769Z,100463.03
2023-02-18T20:08:47.225Z,100462.22
2023-02-18T20:11:14.229Z,100456.03
2023-02-18T20:13:42.077Z,100454.38
2023-02-18T20:16:10.372Z,100455.38
2023-02-18T20:18:37.340Z,100458.22
2023-02-18T20:21:04.672Z,100461.91
2023-02-18T20:23:31.633Z,100454.72
2023-02-18T20:26:02.585Z,100450.41
2023-02-18T20:28:29.569Z,100444.56
2023-02-18T20:31:08.705Z,100447.44
2023-02-18T20:33:36.264Z,100449.09
2023-02-18T20:36:05.124Z,100445.78
2023-02-18T20:38:32.570Z,100445.78
2023-02-18T20:41:14.372Z,100444.13
2023-02-18T20:43:41.798Z,100436.09
2023-02-18T20:46:13.112Z,100437.75
2023-02-18T20:48:40.154Z,100429.75
2023-02-18T20:51:14.427Z,100437.13
2023-02-18T20:53:43.546Z,100436.09
2023-02-18T20:56:10.937Z,100430.59
2023-02-18T20:58:38.578Z,100439.78
2023-02-18T21:01:12.206Z,100443.44
2023-02-18T21:03:40.102Z,100440.78
2023-02-18T21:06:13.706Z,100439.13
2023-02-18T21:08:41.404Z,100440.13
2023-02-18T21:11:15.444Z,100436.63
2023-02-18T21:13:43.111Z,100441.97
2023-02-18T21:16:10.400Z,100438.47
2023-02-18T21:18:40.462Z,100442.16
2023-02-18T21:21:10.253Z,100448.50
2023-02-18T21:23:38.946Z,100440.66
2023-02-18T21:26:22.337Z,100438.16
2023-02-18T21:28:52.932Z,100430.16
2023-02-18T21:31:24.669Z,100443.88
2023-02-18T21:33:52.101Z,100442.22
2023-02-18T21:36:20.761Z,100443.19
2023-02-18T21:38:56.745Z,100435.56
2023-02-18T21:41:24.663Z,100438.41
2023-02-18T21:43:52.120Z,100431.41
2023-02-18T21:46:31.797Z,100440.38
2023-02-18T21:49:02.057Z,100436.22
2023-02-18T21:51:52.393Z,100432.91
2023-02-18T21:54:22.994Z,100430.41
2023-02-18T21:56:50.540Z,100429.56
2023-02-18T21:59:19.744Z,100435.91
2023-02-18T22:01:47.846Z,100435.28
2023-02-18T22:04:16.700Z,100425.63
2023-02-18T22:06:43.944Z,100421.28
2023-02-18T22:09:12.296Z,100424.94
2023-02-18T22:11:44.852Z,100420.63
2023-02-18T22:14:13.820Z,100414.63
2023-02-18T22:16:41.827Z,100411.97
2023-02-18T22:19:11.172Z,100412.97
2023-02-18T22:21:38.381Z,100401.47
2023-02-18T22:24:06.522Z,100405.16
2023-02-18T22:26:34.156Z,100405.16
2023-02-18T22:29:01.164Z,100405.31
2023-02-18T22:31:30.762Z,100391.97
2023-02-18T22:34:00.501Z,100396.47
2023-02-18T22:36:29.176Z,100390.31
2023-02-18T22:38:58.183Z,100390.31
2023-02-18T22:41:28.271Z,100392.97
2023-02-18T22:44:05.818Z,100399.31
2023-02-18T22:46:36.737Z,100389.47
2023-02-18T22:49:06.768Z,100382.50
2023-02-18T22:51:37.961Z,100392.97
2023-02-18T22:54:08.187Z,100384.97
2023-02-18T22:56:35.121Z,100381.47
2023-02-18T22:59:02.282Z,100382.50
2023-02-18T23:01:33.998Z,100387.00
2023-02-18T23:04:11.533Z,100382.66
2023-02-18T23:06:41.369Z,100385.34
2023-02-18T23:09:13.048Z,100384.50
2023-02-18T23:11:40.064Z,100371.16
2023-02-18T23:14:18.712Z,100371.16
2023-02-18T23:17:07.540Z,100375.69
2023-02-18T23:19:36.545Z,100369.50
2023-02-18T23:22:04.106Z,100362.50
2023-02-18T23:24:36.829Z,100355.31
2023-02-18T23:27:04.819Z,100353.66
2023-02-18T23:29:31.980Z,100353.66
2023-02-18T23:31:58.935Z,100360.00
2023-02-18T23:34:25.933Z,100356.50
2023-02-18T23:36:52.900Z,100350.34
2023-02-18T23:39:22.311Z,100369.03
2023-02-18T23:41:50.244Z,100361.03
2023-02-18T23:44:21.633Z,100365.34
2023-02-18T23:46:49.005Z,100361.03
2023-02-18T23:49:19.548Z,100370.88
2023-02-18T23:51:46.486Z,100369.22
2023-02-18T23:54:13.446Z,100362.22
2023-02-18T23:56:40.962Z,100368.38
2023-02-18T23:59:07.948Z,100374.53
